createdAt,value
2016-06-08T11:39:57.061Z,26.32
2016-06-08T11:40:28.889Z,26.32
2016-06-08T11:41:28.893Z,26.32
2016-06-08T11:42:28.895Z,26.36
2016-06-08T11:43:28.914Z,26.37
2016-06-08T11:44:30.119Z,26.3
2016-06-08T11:45:28.778Z,26.25
2016-06-08T11:46:29.781Z,26.32
2016-06-08T11:47:28.784Z,26.23
2016-06-08T11:48:28.942Z,26.3
2016-06-08T11:49:28.976Z,26.33
2016-06-08T11:50:30.400Z,26.32
2016-06-08T11:51:28.997Z,26.25
2016-06-08T11:52:28.969Z,26.26
2016-06-08T11:53:28.830Z,26.21
2016-06-08T11:54:28.989Z,26.26
2016-06-08T11:55:29.774Z,26.29
2016-06-08T11:56:29.010Z,26.2
2016-06-08T11:57:29.420Z,26.21
2016-06-08T11:58:29.032Z,26.2
2016-06-08T11:59:28.737Z,26.12
2016-06-08T12:00:34.693Z,26.12
2016-06-08T12:01:29.055Z,26.09
2016-06-08T12:02:29.698Z,26.15
2016-06-08T12:03:29.671Z,26.13
2016-06-08T12:04:28.923Z,26.21
2016-06-08T12:05:29.081Z,26.2
2016-06-08T12:06:39.243Z,26.18
2016-06-08T12:07:29.103Z,26.25
2016-06-08T12:08:28.793Z,26.29
2016-06-08T12:09:32.452Z,26.26
2016-06-08T12:10:29.782Z,26.2
2016-06-08T12:11:29.129Z,26.28
2016-06-08T12:12:29.163Z,26.25
2016-06-08T12:13:29.931Z,26.25
2016-06-08T12:14:29.153Z,26.26
2016-06-08T12:15:29.046Z,26.3
2016-06-08T12:16:29.158Z,26.33
2016-06-08T12:17:29.973Z,26.33
2016-06-08T12:18:29.195Z,26.28
2016-06-08T12:19:29.025Z,26.26
2016-06-08T12:20:29.184Z,26.33
2016-06-08T12:21:29.608Z,26.39
2016-06-08T12:22:29.064Z,26.4
2016-06-08T12:23:29.208Z,26.39
2016-06-08T12:24:28.914Z,26.32
2016-06-08T12:25:29.229Z,26.33
2016-06-08T12:26:29.091Z,26.32
2016-06-08T12:27:29.297Z,26.35
2016-06-08T12:28:29.550Z,26.35
2016-06-08T12:29:29.913Z,26.28
2016-06-08T12:30:29.290Z,26.26
2016-06-08T12:31:29.276Z,26.23
2016-06-08T12:32:30.280Z,26.25
2016-06-08T12:33:29.141Z,26.35
2016-06-08T12:34:29.301Z,26.29
2016-06-08T12:35:29.303Z,26.32
2016-06-08T12:36:29.306Z,26.33
2016-06-08T12:37:29.324Z,26.26
2016-06-08T12:38:29.326Z,26.28
2016-06-08T12:39:29.345Z,26.28
2016-06-08T12:40:29.379Z,26.35
2016-06-08T12:41:29.819Z,26.35
2016-06-08T12:42:29.384Z,26.32
2016-06-08T12:43:29.371Z,26.32
2016-06-08T12:44:29.734Z,26.33
2016-06-08T12:45:29.392Z,26.33
2016-06-08T12:46:29.395Z,26.29
2016-06-08T12:47:29.398Z,26.25
2016-06-08T12:48:29.416Z,26.3
2016-06-08T12:49:29.434Z,26.32
2016-06-08T12:50:29.422Z,26.33
2016-06-08T12:51:29.439Z,26.29
2016-06-08T12:52:29.489Z,26.32
2016-06-08T12:53:29.445Z,26.36
2016-06-08T12:54:30.385Z,26.33
2016-06-08T12:55:29.528Z,26.3
2016-06-08T12:56:29.485Z,26.33
2016-06-08T12:57:29.471Z,26.35
2016-06-08T12:58:29.491Z,26.33
2016-06-08T12:59:29.336Z,26.33
2016-06-08T13:00:29.542Z,26.33
2016-06-08T13:01:29.514Z,26.29
2016-06-08T13:02:29.516Z,26.32
2016-06-08T13:03:30.488Z,26.3
2016-06-08T13:04:29.537Z,26.29
2016-06-08T13:05:30.212Z,26.3
2016-06-08T13:06:29.558Z,26.32
2016-06-08T13:07:29.607Z,26.21
2016-06-08T13:08:29.563Z,26.21
2016-06-08T13:09:29.565Z,26.23
2016-06-08T13:10:29.568Z,26.29
2016-06-08T13:11:29.588Z,26.29
2016-06-08T13:12:29.590Z,26.28
2016-06-08T13:13:29.655Z,26.3
2016-06-08T13:14:31.345Z,26.28
2016-06-08T13:15:29.614Z,26.18
2016-06-08T13:16:30.179Z,26.25
2016-06-08T13:17:29.681Z,26.33
2016-06-08T13:18:29.653Z,26.25
2016-06-08T13:19:29.655Z,26.26
2016-06-08T13:20:29.658Z,26.33
2016-06-08T13:21:29.662Z,26.32
2016-06-08T13:22:29.680Z,26.26
2016-06-08T13:23:29.682Z,26.26
2016-06-08T13:24:29.685Z,26.18
2016-06-08T13:25:30.344Z,26.26
2016-06-08T13:26:29.706Z,26.18
2016-06-08T13:27:30.755Z,26.23
2016-06-08T13:28:29.727Z,26.02
2016-06-08T13:29:29.730Z,26.21
2016-06-08T13:30:29.747Z,26.12
2016-06-08T13:31:29.735Z,26.07
2016-06-08T13:32:29.753Z,26.12
2016-06-08T13:33:29.755Z,26.12
2016-06-08T13:34:29.821Z,26.15
2016-06-08T13:35:29.777Z,26.1
2016-06-08T13:36:30.718Z,26.13
2016-06-08T13:37:29.782Z,26.13
2016-06-08T13:38:30.347Z,26.13
2016-06-08T13:39:29.803Z,26.13
2016-06-08T13:40:29.807Z,26.18
2016-06-08T13:41:29.824Z,26.17
2016-06-08T13:42:29.827Z,26.1
2016-06-08T13:43:29.829Z,25.97
2016-06-08T13:44:30.129Z,26.02
2016-06-08T13:45:30.273Z,25.91
2016-06-08T13:46:29.698Z,25.87
2016-06-08T13:47:30.715Z,25.9
2016-06-08T13:48:29.875Z,25.99
2016-06-08T13:49:30.331Z,25.97
2016-06-08T13:50:29.895Z,25.99
2016-06-08T13:51:29.898Z,25.92
2016-06-08T13:52:29.900Z,25.94
2016-06-08T13:53:29.919Z,25.87
2016-06-08T13:54:29.906Z,25.75
2016-06-08T13:55:29.924Z,25.88
2016-06-08T13:56:29.928Z,25.85
2016-06-08T13:57:29.930Z,25.83
2016-06-08T13:58:30.588Z,25.75
2016-06-08T13:59:29.951Z,25.77
2016-06-08T14:00:30.235Z,25.83
2016-06-08T14:01:29.972Z,25.85
2016-06-08T14:02:29.974Z,25.9
2016-06-08T14:03:29.977Z,25.88
2016-06-08T14:04:29.996Z,26.01
2016-06-08T14:05:29.999Z,25.97
2016-06-08T14:06:30.001Z,26.05
2016-06-08T14:07:30.019Z,25.85
2016-06-08T14:08:30.007Z,25.92
2016-06-08T14:09:30.431Z,26.02
2016-06-08T14:10:30.026Z,25.98
2016-06-08T14:11:30.046Z,26.02
2016-06-08T14:12:30.048Z,26.01
2016-06-08T14:13:30.123Z,26.06
2016-06-08T14:14:30.300Z,26.1
2016-06-08T14:15:30.744Z,26.01
2016-06-08T14:16:30.672Z,25.88
2016-06-08T14:17:30.896Z,25.88
2016-06-08T14:18:30.982Z,25.99
2016-06-08T14:19:31.048Z,25.91
2016-06-08T14:20:31.380Z,25.94
2016-06-08T14:21:32.992Z,25.91
2016-06-08T14:22:32.230Z,25.97
2016-06-08T14:23:31.311Z,25.87
2016-06-08T14:24:31.353Z,25.9
2016-06-08T14:25:31.394Z,25.88
2016-06-08T14:26:31.404Z,25.83
2016-06-08T14:27:31.430Z,25.85
2016-06-08T14:28:31.449Z,25.87
2016-06-08T14:29:31.475Z,25.91
2016-06-08T14:30:31.815Z,25.87
2016-06-08T14:31:31.514Z,25.79
2016-06-08T14:32:31.525Z,25.9
2016-06-08T14:33:32.268Z,25.97
2016-06-08T14:34:31.541Z,25.95
2016-06-08T14:35:31.547Z,25.95
2016-06-08T14:36:31.615Z,25.83
2016-06-08T14:37:31.574Z,25.85
2016-06-08T14:38:31.439Z,25.77
2016-06-08T14:39:31.584Z,25.77
2016-06-08T14:40:31.588Z,25.82
2016-06-08T14:41:31.607Z,25.73
2016-06-08T14:42:31.612Z,25.7
2016-06-08T14:43:31.616Z,25.6
2016-06-08T14:44:32.713Z,25.69
2016-06-08T14:45:31.639Z,25.79
2016-06-08T14:46:31.642Z,25.67
2016-06-08T14:47:31.662Z,25.57
2016-06-08T14:48:31.649Z,25.6
2016-06-08T14:49:31.652Z,25.62
2016-06-08T14:50:31.671Z,25.62
2016-06-08T14:51:31.674Z,25.58
2016-06-08T14:52:31.677Z,25.7
2016-06-08T14:53:32.820Z,25.77
2016-06-08T14:54:31.698Z,25.76
2016-06-08T14:55:32.498Z,25.92
2016-06-08T14:56:31.704Z,26.01
2016-06-08T14:57:31.708Z,26.09
2016-06-08T14:58:31.711Z,26.02
2016-06-08T14:59:31.729Z,25.91
2016-06-08T15:00:31.733Z,25.82
2016-06-08T15:01:31.736Z,25.85
2016-06-08T15:02:31.739Z,25.79
2016-06-08T15:03:31.742Z,25.76
2016-06-08T15:04:32.682Z,25.73
2016-06-08T15:05:31.607Z,25.6
2016-06-08T15:06:32.063Z,25.58
2016-06-08T15:07:31.769Z,25.72
2016-06-08T15:08:31.772Z,25.54
2016-06-08T15:09:31.636Z,25.45
2016-06-08T15:10:31.795Z,25.4
2016-06-08T15:11:31.797Z,25.5
2016-06-08T15:12:31.800Z,25.62
2016-06-08T15:13:31.803Z,25.58
2016-06-08T15:14:31.807Z,25.46
2016-06-08T15:15:32.388Z,25.55
2016-06-08T15:16:31.876Z,25.57
2016-06-08T15:17:32.035Z,25.55
2016-06-08T15:18:31.835Z,25.51
2016-06-08T15:19:31.900Z,25.57
2016-06-08T15:20:31.856Z,25.5
2016-06-08T15:21:31.859Z,25.58
2016-06-08T15:22:31.862Z,25.55
2016-06-08T15:23:31.865Z,25.55
2016-06-08T15:24:31.869Z,25.45
2016-06-08T15:25:31.871Z,25.35
2016-06-08T15:26:33.000Z,25.4
2016-06-08T15:27:31.877Z,25.36
2016-06-08T15:28:31.897Z,25.46
2016-06-08T15:29:31.899Z,25.46
2016-06-08T15:30:31.919Z,25.52
2016-06-08T15:31:32.437Z,25.72
2016-06-08T15:32:31.925Z,25.67
2016-06-08T15:33:31.928Z,25.67
2016-06-08T15:34:31.931Z,25.67
2016-06-08T15:35:31.934Z,25.67
2016-06-08T15:36:31.938Z,25.55
2016-06-08T15:37:32.956Z,25.55
2016-06-08T15:38:31.959Z,25.55
2016-06-08T15:39:31.962Z,25.6
2016-06-08T15:40:31.965Z,25.47
2016-06-08T15:41:31.984Z,25.5
2016-06-08T15:42:31.987Z,25.55
2016-06-08T15:43:31.990Z,25.45
2016-06-08T15:44:31.993Z,25.54
2016-06-08T15:45:32.277Z,25.62
2016-06-08T15:46:33.311Z,25.61
2016-06-08T15:47:32.017Z,25.58
2016-06-08T15:48:32.520Z,25.61
2016-06-08T15:49:32.023Z,25.57
2016-06-08T15:50:32.027Z,25.46
2016-06-08T15:51:32.030Z,25.46
2016-06-08T15:52:32.033Z,25.52
2016-06-08T15:53:32.035Z,25.4
2016-06-08T15:54:32.055Z,25.36
2016-06-08T15:55:32.058Z,25.38
2016-06-08T15:56:32.061Z,25.45
2016-06-08T15:57:32.064Z,25.42
2016-06-08T15:58:32.098Z,25.38
2016-06-08T15:59:32.429Z,25.38
2016-06-08T16:00:32.761Z,25.38
2016-06-08T16:01:32.092Z,25.42
2016-06-08T16:02:32.110Z,25.4
2016-06-08T16:03:32.098Z,25.35
2016-06-08T16:04:32.117Z,25.13
2016-06-08T16:05:31.964Z,25.28
2016-06-08T16:06:32.123Z,25.14
2016-06-08T16:07:32.125Z,25.21
2016-06-08T16:08:32.145Z,25.13
2016-06-08T16:09:32.148Z,25.15
2016-06-08T16:10:33.120Z,25.18
2016-06-08T16:11:31.998Z,25.24
2016-06-08T16:12:33.032Z,25.24
2016-06-08T16:13:32.160Z,25.23
2016-06-08T16:14:32.164Z,25.23
2016-06-08T16:15:33.322Z,25.09
2016-06-08T16:16:32.747Z,25.08
2016-06-08T16:17:32.189Z,25.13
2016-06-08T16:18:32.237Z,25.21
2016-06-08T16:19:32.194Z,25.18
2016-06-08T16:20:32.056Z,25.21
2016-06-08T16:21:33.169Z,25.14
2016-06-08T16:22:32.219Z,25.17
2016-06-08T16:23:33.003Z,25.1
2016-06-08T16:24:32.225Z,25.14
2016-06-08T16:25:32.244Z,25.18
2016-06-08T16:26:32.247Z,25.21
2016-06-08T16:27:32.250Z,25.2
2016-06-08T16:28:32.253Z,25.28
2016-06-08T16:29:32.256Z,25.17
2016-06-08T16:30:32.446Z,25.05
2016-06-08T16:31:32.262Z,25.21
2016-06-08T16:32:32.937Z,25.2
2016-06-08T16:33:32.268Z,25.15
2016-06-08T16:34:33.209Z,25.03
2016-06-08T16:35:32.275Z,25.08
2016-06-08T16:36:32.292Z,25.14
2016-06-08T16:37:32.359Z,25.25
2016-06-08T16:38:32.299Z,25.18
2016-06-08T16:39:32.318Z,25.2
2016-06-08T16:40:32.305Z,25.39
2016-06-08T16:41:32.325Z,25.43
2016-06-08T16:42:32.359Z,25.4
2016-06-08T16:43:33.486Z,25.4
2016-06-08T16:44:32.350Z,25.23
2016-06-08T16:45:32.993Z,25.32
2016-06-08T16:46:32.370Z,25.24
2016-06-08T16:47:32.359Z,25.36
2016-06-08T16:48:32.362Z,25.33
2016-06-08T16:49:32.365Z,25.35
2016-06-08T16:50:32.368Z,25.45
2016-06-08T16:51:32.246Z,25.4
2016-06-08T16:52:32.374Z,25.5
2016-06-08T16:53:32.236Z,25.36
2016-06-08T16:54:33.083Z,25.38
2016-06-08T16:55:32.398Z,25.39
2016-06-08T16:56:32.698Z,25.45
2016-06-08T16:57:32.405Z,25.43
2016-06-08T16:58:33.517Z,25.42
2016-06-08T16:59:32.411Z,25.24
2016-06-08T17:00:32.648Z,25.33
2016-06-08T17:01:33.386Z,25.33
2016-06-08T17:02:32.451Z,25.36
2016-06-08T17:03:32.439Z,25.35
2016-06-08T17:04:32.301Z,25.47
2016-06-08T17:05:32.898Z,25.38
2016-06-08T17:06:32.464Z,25.5
2016-06-08T17:07:32.623Z,25.39
2016-06-08T17:08:32.486Z,25.4
2016-06-08T17:09:33.582Z,25.2
2016-06-08T17:10:32.366Z,25.3
2016-06-08T17:11:32.355Z,25.15
2016-06-08T17:12:32.497Z,25.17
2016-06-08T17:13:32.345Z,25.14
2016-06-08T17:14:32.503Z,25.23
2016-06-08T17:15:32.523Z,25.25
2016-06-08T17:16:33.229Z,25.23
2016-06-08T17:17:32.529Z,25.25
2016-06-08T17:18:33.047Z,25.24
2016-06-08T17:19:32.535Z,25.39
2016-06-08T17:20:32.553Z,25.28
2016-06-08T17:21:32.400Z,25.27
2016-06-08T17:22:32.560Z,25.32
2016-06-08T17:23:32.609Z,25.33
2016-06-08T17:24:32.582Z,25.28
2016-06-08T17:25:32.569Z,25.21
2016-06-08T17:26:32.587Z,25.23
2016-06-08T17:27:33.388Z,25.27
2016-06-08T17:28:32.593Z,25.2
2016-06-08T17:29:33.003Z,25.3
2016-06-08T17:30:32.600Z,25.3
2016-06-08T17:31:34.619Z,25.23
2016-06-08T17:32:32.481Z,25.2
2016-06-08T17:33:32.625Z,25.13
2016-06-08T17:34:32.504Z,25.1
2016-06-08T17:35:32.646Z,25.06
2016-06-08T17:36:32.650Z,25.17
2016-06-08T17:37:32.480Z,25.14
2016-06-08T17:38:33.516Z,25.09
2016-06-08T17:39:32.674Z,25.18
2016-06-08T17:40:33.052Z,25.2
2016-06-08T17:41:32.681Z,25.17
2016-06-08T17:42:32.668Z,25.2
2016-06-08T17:43:32.671Z,25.23
2016-06-08T17:44:32.690Z,25.3
2016-06-08T17:45:32.693Z,25.18
2016-06-08T17:46:32.712Z,25.24
2016-06-08T17:47:32.700Z,25.2
2016-06-08T17:48:32.718Z,25.23
2016-06-08T17:49:33.299Z,25.3
2016-06-08T17:50:32.756Z,25.3
2016-06-08T17:51:32.992Z,25.24
2016-06-08T17:52:32.731Z,25.35
2016-06-08T17:53:33.874Z,25.42
2016-06-08T17:54:32.767Z,25.24
2016-06-08T17:55:32.771Z,25.27
2016-06-08T17:56:32.758Z,25.35
2016-06-08T17:57:32.777Z,25.15
2016-06-08T17:58:32.763Z,25.13
2016-06-08T17:59:32.767Z,25.14
2016-06-08T18:00:33.223Z,25.23
2016-06-08T18:01:32.929Z,25.13
2016-06-08T18:02:32.901Z,25.09
2016-06-08T18:03:32.811Z,25.09
2016-06-08T18:04:33.798Z,25.17
2016-06-08T18:05:32.816Z,25.21
2016-06-08T18:06:32.820Z,25.18
2016-06-08T18:07:32.807Z,25.21
2016-06-08T18:08:32.825Z,25.21
2016-06-08T18:09:32.845Z,25.03
2016-06-08T18:10:32.832Z,25.05
2016-06-08T18:11:33.101Z,25.02
2016-06-08T18:12:32.838Z,25.03
2016-06-08T18:13:32.858Z,25.09
2016-06-08T18:14:32.860Z,25.06
2016-06-08T18:15:33.722Z,25.05
2016-06-08T18:16:33.788Z,24.98
2016-06-08T18:17:32.869Z,25
2016-06-08T18:18:32.873Z,24.98
2016-06-08T18:19:32.891Z,24.98
2016-06-08T18:20:32.941Z,24.84
2016-06-08T18:21:32.913Z,24.93
2016-06-08T18:22:33.198Z,25.02
2016-06-08T18:23:32.747Z,24.95
2016-06-08T18:24:33.875Z,24.98
2016-06-08T18:25:32.910Z,24.88
2016-06-08T18:26:33.678Z,24.81
2016-06-08T18:27:32.931Z,24.88
2016-06-08T18:28:32.935Z,24.84
2016-06-08T18:29:32.937Z,24.87
2016-06-08T18:30:32.940Z,24.84
2016-06-08T18:31:33.100Z,24.83
2016-06-08T18:32:33.104Z,24.88
2016-06-08T18:33:33.074Z,24.85
2016-06-08T18:34:32.969Z,24.73
2016-06-08T18:35:33.784Z,24.73
2016-06-08T18:36:32.975Z,24.88
2016-06-08T18:37:33.681Z,24.95
2016-06-08T18:38:32.981Z,24.98
2016-06-08T18:39:33.000Z,24.99
2016-06-08T18:40:33.003Z,24.91
2016-06-08T18:41:32.990Z,24.83
2016-06-08T18:42:33.009Z,24.81
2016-06-08T18:43:33.027Z,24.91
2016-06-08T18:44:33.311Z,24.95
2016-06-08T18:45:33.019Z,24.9
2016-06-08T18:46:33.021Z,24.84
2016-06-08T18:47:33.492Z,24.65
2016-06-08T18:48:33.981Z,24.68
2016-06-08T18:49:33.045Z,24.62
2016-06-08T18:50:32.908Z,24.78
2016-06-08T18:51:33.052Z,24.76
2016-06-08T18:52:33.055Z,24.77
2016-06-08T18:53:33.058Z,24.73
2016-06-08T18:54:33.077Z,24.67
2016-06-08T18:55:33.331Z,24.53
2016-06-08T18:56:33.083Z,24.52
2016-06-08T18:57:33.087Z,24.5
2016-06-08T18:58:33.089Z,24.47
2016-06-08T18:59:33.998Z,24.42
2016-06-08T19:00:33.142Z,24.52
2016-06-08T19:01:33.255Z,24.52
2016-06-08T19:02:33.399Z,24.58
2016-06-08T19:03:33.105Z,24.65
2016-06-08T19:04:33.108Z,24.58
2016-06-08T19:05:33.126Z,24.37
2016-06-08T19:06:33.286Z,24.31
2016-06-08T19:07:33.133Z,24.27
2016-06-08T19:08:34.104Z,24.18
2016-06-08T19:09:33.138Z,24.24
2016-06-08T19:10:33.938Z,24.4
2016-06-08T19:11:33.145Z,24.45
2016-06-08T19:12:33.147Z,24.25
2016-06-08T19:13:33.150Z,24.18
2016-06-08T19:14:33.154Z,24.42
2016-06-08T19:15:33.157Z,24.65
2016-06-08T19:16:33.020Z,24.83
2016-06-08T19:17:33.351Z,24.77
2016-06-08T19:18:33.026Z,24.95
2016-06-08T19:19:34.169Z,24.81
2016-06-08T19:20:33.032Z,24.83
2016-06-08T19:21:33.847Z,24.88
2016-06-08T19:22:33.257Z,24.68
2016-06-08T19:23:33.261Z,24.55
2016-06-08T19:24:33.216Z,24.46
2016-06-08T19:25:33.219Z,24.31
2016-06-08T19:26:33.223Z,24.35
2016-06-08T19:27:33.226Z,24.37
2016-06-08T19:28:33.479Z,24.37
2016-06-08T19:29:33.231Z,24.47
2016-06-08T19:30:33.250Z,24.31
2016-06-08T19:31:33.535Z,24.35
2016-06-08T19:32:34.397Z,24.52
2016-06-08T19:33:33.275Z,24.64
2016-06-08T19:34:33.262Z,24.47
2016-06-08T19:35:33.265Z,24.5
2016-06-08T19:36:33.268Z,24.55
2016-06-08T19:37:33.287Z,24.57
2016-06-08T19:38:33.134Z,24.32
2016-06-08T19:39:33.543Z,24.5
2016-06-08T19:40:33.343Z,24.52
2016-06-08T19:41:34.268Z,24.53
2016-06-08T19:42:33.303Z,24.49
2016-06-08T19:43:34.118Z,24.57
2016-06-08T19:44:33.325Z,24.55
2016-06-08T19:45:33.328Z,24.57
2016-06-08T19:46:33.174Z,24.53
2016-06-08T19:47:33.974Z,24.73
2016-06-08T19:48:33.352Z,24.85
2016-06-08T19:49:33.340Z,24.71
2016-06-08T19:50:33.358Z,24.81
2016-06-08T19:51:33.378Z,24.57
2016-06-08T19:52:34.224Z,24.6
2016-06-08T19:53:33.368Z,24.65
2016-06-08T19:54:33.964Z,24.76
2016-06-08T19:55:33.373Z,24.55
2016-06-08T19:56:33.377Z,24.67
2016-06-08T19:57:33.536Z,24.8
2016-06-08T19:58:33.399Z,24.69
2016-06-08T19:59:33.402Z,24.81
2016-06-08T20:00:33.405Z,24.77
2016-06-08T20:01:34.298Z,24.5
2016-06-08T20:02:33.442Z,24.55
2016-06-08T20:03:34.399Z,24.5
2016-06-08T20:04:33.432Z,24.46
2016-06-08T20:05:34.171Z,24.5
2016-06-08T20:06:33.424Z,24.55
2016-06-08T20:07:33.426Z,24.6
2016-06-08T20:08:33.289Z,24.67
2016-06-08T20:09:33.448Z,24.65
2016-06-08T20:10:33.451Z,24.71
2016-06-08T20:11:33.469Z,24.84
2016-06-08T20:12:33.629Z,24.9
2016-06-08T20:13:33.476Z,24.73
2016-06-08T20:14:34.448Z,24.85
2016-06-08T20:15:33.482Z,24.68
2016-06-08T20:16:34.313Z,24.43
2016-06-08T20:17:34.113Z,24.28
2016-06-08T20:18:33.336Z,24.05
2016-06-08T20:19:33.510Z,24.12
2016-06-08T20:20:33.513Z,24.13
2016-06-08T20:21:33.532Z,24.31
2016-06-08T20:22:33.520Z,24.3
2016-06-08T20:23:33.912Z,24.31
2016-06-08T20:24:33.526Z,24.46
2016-06-08T20:25:33.529Z,24.47
2016-06-08T20:26:33.579Z,24.13
2016-06-08T20:27:34.644Z,23.94
2016-06-08T20:28:33.553Z,23.79
2016-06-08T20:29:33.401Z,23.65
2016-06-08T20:30:33.559Z,23.79
2016-06-08T20:31:33.703Z,23.93
2016-06-08T20:32:33.706Z,23.85
2016-06-08T20:33:33.568Z,23.66
2016-06-08T20:34:33.838Z,23.73
2016-06-08T20:35:33.575Z,23.79
2016-06-08T20:36:33.578Z,23.87
2016-06-08T20:37:33.581Z,23.8
2016-06-08T20:38:34.474Z,23.87
2016-06-08T20:39:33.587Z,23.76
2016-06-08T20:40:33.637Z,23.91
2016-06-08T20:41:33.609Z,23.95
2016-06-08T20:42:33.596Z,23.88
2016-06-08T20:43:33.615Z,23.94
2016-06-08T20:44:33.618Z,23.78
2016-06-08T20:45:33.824Z,24.08
2016-06-08T20:46:33.608Z,23.9
2016-06-08T20:47:33.314Z,23.68
2016-06-08T20:48:33.646Z,23.83
2016-06-08T20:49:34.446Z,23.72
2016-06-08T20:50:33.637Z,23.66
2016-06-08T20:51:33.640Z,23.58
2016-06-08T20:52:33.643Z,23.9
2016-06-08T20:53:33.662Z,23.94
2016-06-08T20:54:33.665Z,23.93
2016-06-08T20:55:33.653Z,23.87
2016-06-08T20:56:34.000Z,23.57
2016-06-08T20:57:33.502Z,23.33
2016-06-08T20:58:33.709Z,23.15
2016-06-08T20:59:33.665Z,23.22
2016-06-08T21:00:34.761Z,23.39
2016-06-08T21:01:33.670Z,23.5
2016-06-08T21:02:33.799Z,23.05
2016-06-08T21:03:33.677Z,22.97
2016-06-08T21:04:33.680Z,22.98
2016-06-08T21:05:33.683Z,23.22
2016-06-08T21:06:33.703Z,23.63
2016-06-08T21:07:34.251Z,23.63
2016-06-08T21:08:33.708Z,23.72
2016-06-08T21:09:34.055Z,23.88
2016-06-08T21:10:33.715Z,23.97
2016-06-08T21:11:33.718Z,23.98
2016-06-08T21:12:33.720Z,24
2016-06-08T21:13:33.739Z,24.02
2016-06-08T21:14:33.727Z,23.88
2016-06-08T21:15:33.730Z,23.76
2016-06-08T21:16:33.733Z,23.42
2016-06-08T21:17:33.736Z,23.63
2016-06-08T21:18:34.520Z,23.7
2016-06-08T21:19:33.742Z,23.57
2016-06-08T21:20:33.995Z,23.63
2016-06-08T21:21:33.748Z,23.72
2016-06-08T21:22:33.752Z,23.55
2016-06-08T21:23:33.833Z,23.8
2016-06-08T21:24:33.757Z,23.54
2016-06-08T21:25:33.761Z,23.38
2016-06-08T21:26:33.841Z,23
2016-06-08T21:27:33.767Z,23.04
2016-06-08T21:28:33.770Z,22.82
2016-06-08T21:29:34.569Z,22.67
2016-06-08T21:30:33.776Z,22.62
2016-06-08T21:31:34.279Z,22.82
2016-06-08T21:32:33.986Z,23.01
2016-06-08T21:33:33.800Z,22.94
2016-06-08T21:34:33.804Z,22.8
2016-06-08T21:35:33.792Z,23.16
2016-06-08T21:36:33.794Z,22.88
2016-06-08T21:37:33.969Z,22.68
2016-06-08T21:38:33.800Z,22.57
2016-06-08T21:39:33.819Z,23.04
2016-06-08T21:40:34.712Z,22.92
2016-06-08T21:41:33.841Z,22.9
2016-06-08T21:42:34.266Z,22.68
2016-06-08T21:43:33.816Z,22.45
2016-06-08T21:44:33.834Z,22.51
2016-06-08T21:45:33.837Z,22.92
2016-06-08T21:46:33.840Z,22.58
2016-06-08T21:47:33.703Z,22.45
2016-06-08T21:48:33.846Z,22.39
2016-06-08T21:49:33.850Z,22.27
2016-06-08T21:50:33.868Z,22.42
2016-06-08T21:51:34.606Z,22.58
2016-06-08T21:52:33.858Z,22.42
2016-06-08T21:53:34.314Z,22.52
2016-06-08T21:54:33.865Z,22.54
2016-06-08T21:55:33.712Z,22.31
2016-06-08T21:56:33.871Z,22.24
2016-06-08T21:57:33.859Z,22.61
2016-06-08T21:58:33.862Z,22.45
2016-06-08T21:59:33.865Z,22.42
2016-06-08T22:00:33.883Z,22.52
2016-06-08T22:01:33.887Z,22.55
2016-06-08T22:02:35.014Z,22.9
2016-06-08T22:03:33.753Z,22.8
2016-06-08T22:04:34.646Z,22.54
2016-06-08T22:05:33.742Z,22.27
2016-06-08T22:06:33.902Z,22.67
2016-06-08T22:07:33.904Z,22.46
2016-06-08T22:08:33.924Z,22.77
2016-06-08T22:09:33.911Z,22.68
2016-06-08T22:10:33.899Z,22.49
2016-06-08T22:11:33.917Z,22.6
2016-06-08T22:12:33.920Z,22.95
2016-06-08T22:13:34.768Z,22.6
2016-06-08T22:14:33.926Z,22.37
2016-06-08T22:15:35.679Z,22.8
2016-06-08T22:16:33.932Z,22.82
2016-06-08T22:17:33.921Z,22.54
2016-06-08T22:18:33.939Z,22.42
2016-06-08T22:19:33.941Z,22.52
2016-06-08T22:20:33.961Z,22.4
2016-06-08T22:21:33.947Z,22.62
2016-06-08T22:22:33.951Z,22.49
2016-06-08T22:23:33.954Z,22.31
2016-06-08T22:24:35.067Z,22.24
2016-06-08T22:25:33.960Z,22.05
2016-06-08T22:26:34.557Z,22.3
2016-06-08T22:27:33.951Z,22.47
2016-06-08T22:28:33.969Z,22.3
2016-06-08T22:29:34.020Z,22.43
2016-06-08T22:30:33.897Z,22.22
2016-06-08T22:31:33.964Z,22.14
2016-06-08T22:32:33.809Z,22.02
2016-06-08T22:33:34.032Z,21.96
2016-06-08T22:34:33.988Z,22.09
2016-06-08T22:35:35.085Z,22.58
2016-06-08T22:36:33.994Z,22.58
2016-06-08T22:37:35.107Z,22.22
2016-06-08T22:38:34.047Z,22.36
2016-06-08T22:39:34.003Z,22.27
2016-06-08T22:40:33.991Z,22.47
2016-06-08T22:41:34.057Z,22.54
2016-06-08T22:42:33.997Z,23.02
2016-06-08T22:43:34.001Z,22.83
2016-06-08T22:44:34.019Z,22.9
2016-06-08T22:45:34.006Z,22.98
2016-06-08T22:46:34.118Z,22.88
2016-06-08T22:47:34.028Z,22.77
2016-06-08T22:48:35.187Z,22.57
2016-06-08T22:49:34.034Z,22.52
2016-06-08T22:50:34.036Z,22.49
2016-06-08T22:51:34.040Z,22.52
2016-06-08T22:52:34.028Z,22.4
2016-06-08T22:53:34.031Z,22.33
2016-06-08T22:54:34.049Z,22.55
2016-06-08T22:55:33.880Z,22.91
2016-06-08T22:56:34.055Z,22.98
2016-06-08T22:57:34.355Z,22.86
2016-06-08T22:58:34.047Z,22.75
2016-06-08T22:59:34.065Z,22.82
2016-06-08T23:00:34.068Z,22.77
2016-06-08T23:01:34.056Z,22.88
2016-06-08T23:02:34.965Z,22.72
2016-06-08T23:03:34.077Z,22.82
2016-06-08T23:04:34.080Z,22.86
2016-06-08T23:05:34.083Z,23.13
2016-06-08T23:06:34.071Z,23.16
2016-06-08T23:07:34.074Z,23.31
2016-06-08T23:08:34.623Z,22.67
2016-06-08T23:09:34.095Z,22.09
2016-06-08T23:10:34.083Z,21.88
2016-06-08T23:11:34.086Z,22.25
2016-06-08T23:12:34.089Z,22.06
2016-06-08T23:13:34.093Z,21.84
2016-06-08T23:14:34.096Z,21.69
2016-06-08T23:15:34.099Z,21.62
2016-06-08T23:16:34.102Z,21.61
2016-06-08T23:17:34.120Z,21.99
2016-06-08T23:18:34.170Z,21.92
2016-06-08T23:19:34.751Z,22.15
2016-06-08T23:20:34.181Z,22.24
2016-06-08T23:21:34.220Z,22
2016-06-08T23:22:34.259Z,21.65
2016-06-08T23:23:34.299Z,21.98
2016-06-08T23:24:34.317Z,22.42
2016-06-08T23:25:34.334Z,22.86
2016-06-08T23:26:34.349Z,23.04
2016-06-08T23:27:34.365Z,23.17
2016-06-08T23:28:34.381Z,23.2
2016-06-08T23:29:34.545Z,23.2
2016-06-08T23:30:35.444Z,23.32
2016-06-08T23:31:34.420Z,23.33
2016-06-08T23:32:34.990Z,23.23
2016-06-08T23:33:34.420Z,23.31
2016-06-08T23:34:34.426Z,23.39
2016-06-08T23:35:34.431Z,23.22
2016-06-08T23:36:34.436Z,23.31
2016-06-08T23:37:34.441Z,23.33
2016-06-08T23:38:34.461Z,23.42
2016-06-08T23:39:34.464Z,23.38
2016-06-08T23:40:34.453Z,23.39
2016-06-08T23:41:37.096Z,23.39
2016-06-08T23:42:34.521Z,23.46
2016-06-08T23:43:34.572Z,23.53
2016-06-08T23:44:34.482Z,23.5
2016-06-08T23:45:34.485Z,23.46
2016-06-08T23:46:34.489Z,23.58
2016-06-08T23:47:34.492Z,23.58
2016-06-08T23:48:34.558Z,23.46
2016-06-08T23:49:34.499Z,23.47
2016-06-08T23:50:34.502Z,23.55
2016-06-08T23:51:34.520Z,23.58
2016-06-08T23:52:35.618Z,23.58
2016-06-08T23:53:34.511Z,23.51
2016-06-08T23:54:34.670Z,23.51
2016-06-08T23:55:34.517Z,23.48
2016-06-08T23:56:34.521Z,23.63
2016-06-08T23:57:34.523Z,23.61
2016-06-08T23:58:34.526Z,23.58
2016-06-08T23:59:34.530Z,23.68
